sensor_id;sensor_type;location;lat;lon;timestamp;pressure;altitude;pressure_sealevel;temperature;humidity
66668;BME280;57205;51.438;-2.006;2023-05-20T00:01:28;102105.06;;;11.32;100.00
66668;BME280;57205;51.438;-2.006;2023-05-20T00:03:54;102109.59;;;11.32;100.00
66668;BME280;57205;51.438;-2.006;2023-05-20T00:06:19;102109.25;;;11.28;100.00
66668;BME280;57205;51.438;-2.006;2023-05-20T00:08:45;102115.53;;;11.22;100.00
66668;BME280;57205;51.438;-2.006;2023-05-20T00:11:10;102112.28;;;11.20;100.00
66668;BME280;57205;51.438;-2.006;2023-05-20T00:13:35;102114.38;;;11.18;100.00
66668;BME280;57205;51.438;-2.006;2023-05-20T00:16:02;102105.19;;;11.14;100.00
66668;BME280;57205;51.438;-2.006;2023-05-20T00:18:27;102107.72;;;11.09;100.00
66668;BME280;57205;51.438;-2.006;2023-05-20T00:20:53;102107.16;;;11.07;100.00
66668;BME280;57205;51.438;-2.006;2023-05-20T00:23:19;102102.72;;;11.01;100.00
66668;BME280;57205;51.438;-2.006;2023-05-20T00:25:45;102108.16;;;10.95;100.00
66668;BME280;57205;51.438;-2.006;2023-05-20T00:28:10;102097.56;;;10.88;100.00
66668;BME280;57205;51.438;-2.006;2023-05-20T00:30:38;102103.59;;;10.83;100.00
66668;BME280;57205;51.438;-2.006;2023-05-20T00:33:04;102092.28;;;10.81;100.00
66668;BME280;57205;51.438;-2.006;2023-05-20T00:35:30;102091.94;;;10.78;100.00
66668;BME280;57205;51.438;-2.006;2023-05-20T00:37:57;102091.94;;;10.78;100.00
66668;BME280;57205;51.438;-2.006;2023-05-20T00:40:22;102099.03;;;10.72;100.00
66668;BME280;57205;51.438;-2.006;2023-05-20T00:42:49;102098.78;;;10.62;100.00
66668;BME280;57205;51.438;-2.006;2023-05-20T00:45:15;102093.88;;;10.59;100.00
66668;BME280;57205;51.438;-2.006;2023-05-20T00:47:41;102090.00;;;10.55;100.00
66668;BME280;57205;51.438;-2.006;2023-05-20T00:50:07;102087.34;;;10.55;100.00
66668;BME280;57205;51.438;-2.006;2023-05-20T00:52:35;102096.28;;;10.49;100.00
66668;BME280;57205;51.438;-2.006;2023-05-20T00:55:01;102093.63;;;10.49;100.00
66668;BME280;57205;51.438;-2.006;2023-05-20T00:57:27;102086.50;;;10.43;100.00
66668;BME280;57205;51.438;-2.006;2023-05-20T00:59:53;102090.28;;;10.36;100.00
66668;BME280;57205;51.438;-2.006;2023-05-20T01:02:18;102079.53;;;10.24;100.00
66668;BME280;57205;51.438;-2.006;2023-05-20T01:04:44;102081.03;;;10.20;100.00
66668;BME280;57205;51.438;-2.006;2023-05-20T01:07:15;102076.50;;;10.21;100.00
66668;BME280;57205;51.438;-2.006;2023-05-20T01:09:41;102075.19;;;10.12;100.00
66668;BME280;57205;51.438;-2.006;2023-05-20T01:12:14;102079.13;;;10.09;100.00
66668;BME280;57205;51.438;-2.006;2023-05-20T01:14:49;102076.72;;;10.01;100.00
66668;BME280;57205;51.438;-2.006;2023-05-20T01:17:16;102072.75;;;9.92;100.00
66668;BME280;57205;51.438;-2.006;2023-05-20T01:19:45;102075.25;;;9.87;100.00
66668;BME280;57205;51.438;-2.006;2023-05-20T01:22:12;102070.34;;;9.84;100.00
66668;BME280;57205;51.438;-2.006;2023-05-20T01:24:40;102075.75;;;9.77;100.00
66668;BME280;57205;51.438;-2.006;2023-05-20T01:27:07;102071.94;;;9.73;100.00
66668;BME280;57205;51.438;-2.006;2023-05-20T01:29:35;102064.56;;;9.69;100.00
66668;BME280;57205;51.438;-2.006;2023-05-20T01:32:06;102068.50;;;9.66;100.00
66668;BME280;57205;51.438;-2.006;2023-05-20T01:34:35;102077.41;;;9.60;100.00
66668;BME280;57205;51.438;-2.006;2023-05-20T01:37:03;102074.78;;;9.54;100.00
66668;BME280;57205;51.438;-2.006;2023-05-20T01:39:30;102075.03;;;9.52;100.00
66668;BME280;57205;51.438;-2.006;2023-05-20T01:41:56;102074.66;;;9.49;100.00
66668;BME280;57205;51.438;-2.006;2023-05-20T01:44:22;102075.06;;;9.46;100.00
66668;BME280;57205;51.438;-2.006;2023-05-20T01:46:48;102074.09;;;9.40;100.00
66668;BME280;57205;51.438;-2.006;2023-05-20T01:49:14;102076.41;;;9.37;100.00
66668;BME280;57205;51.438;-2.006;2023-05-20T01:51:40;102078.47;;;9.35;100.00
66668;BME280;57205;51.438;-2.006;2023-05-20T01:54:05;102073.13;;;9.35;100.00
66668;BME280;57205;51.438;-2.006;2023-05-20T01:56:30;102075.19;;;9.33;100.00
66668;BME280;57205;51.438;-2.006;2023-05-20T01:58:56;102073.13;;;9.35;100.00
66668;BME280;57205;51.438;-2.006;2023-05-20T02:01:23;102073.34;;;9.33;100.00
66668;BME280;57205;51.438;-2.006;2023-05-20T02:03:49;102069.28;;;9.31;100.00
66668;BME280;57205;51.438;-2.006;2023-05-20T02:06:14;102069.06;;;9.32;100.00
66668;BME280;57205;51.438;-2.006;2023-05-20T02:08:39;102069.88;;;9.33;100.00
66668;BME280;57205;51.438;-2.006;2023-05-20T02:11:05;102070.31;;;9.30;100.00
66668;BME280;57205;51.438;-2.006;2023-05-20T02:13:30;102065.41;;;9.27;100.00
66668;BME280;57205;51.438;-2.006;2023-05-20T02:15:56;102070.38;;;9.23;100.00
66668;BME280;57205;51.438;-2.006;2023-05-20T02:18:21;102066.75;;;9.18;100.00
66668;BME280;57205;51.438;-2.006;2023-05-20T02:20:47;102074.94;;;9.16;100.00
66668;BME280;57205;51.438;-2.006;2023-05-20T02:23:12;102072.94;;;9.12;100.00
66668;BME280;57205;51.438;-2.006;2023-05-20T02:25:39;102073.59;;;9.07;100.00
66668;BME280;57205;51.438;-2.006;2023-05-20T02:28:05;102074.47;;;9.01;100.00
66668;BME280;57205;51.438;-2.006;2023-05-20T02:30:37;102077.19;;;8.95;100.00
66668;BME280;57205;51.438;-2.006;2023-05-20T02:33:03;102079.25;;;8.93;100.00
66668;BME280;57205;51.438;-2.006;2023-05-20T02:35:28;102076.66;;;8.86;100.00
66668;BME280;57205;51.438;-2.006;2023-05-20T02:37:54;102074.84;;;8.80;100.00
66668;BME280;57205;51.438;-2.006;2023-05-20T02:40:20;102074.47;;;8.76;100.00
66668;BME280;57205;51.438;-2.006;2023-05-20T02:42:45;102075.72;;;8.74;100.00
66668;BME280;57205;51.438;-2.006;2023-05-20T02:45:11;102083.16;;;8.65;100.00
66668;BME280;57205;51.438;-2.006;2023-05-20T02:47:36;102079.91;;;8.63;100.00
66668;BME280;57205;51.438;-2.006;2023-05-20T02:50:02;102074.97;;;8.60;100.00
66668;BME280;57205;51.438;-2.006;2023-05-20T02:52:27;102072.97;;;8.56;100.00
66668;BME280;57205;51.438;-2.006;2023-05-20T02:54:52;102082.81;;;8.55;100.00
66668;BME280;57205;51.438;-2.006;2023-05-20T02:57:18;102088.97;;;8.56;100.00
66668;BME280;57205;51.438;-2.006;2023-05-20T02:59:43;102086.94;;;8.51;100.00
66668;BME280;57205;51.438;-2.006;2023-05-20T03:02:09;102081.44;;;8.46;100.00
66668;BME280;57205;51.438;-2.006;2023-05-20T03:04:34;102083.28;;;8.46;100.00
66668;BME280;57205;51.438;-2.006;2023-05-20T03:07:05;102081.88;;;8.43;100.00
66668;BME280;57205;51.438;-2.006;2023-05-20T03:09:32;102084.13;;;8.40;100.00
66668;BME280;57205;51.438;-2.006;2023-05-20T03:11:57;102082.72;;;8.37;100.00
66668;BME280;57205;51.438;-2.006;2023-05-20T03:14:22;102075.56;;;8.31;100.00
66668;BME280;57205;51.438;-2.006;2023-05-20T03:16:48;102077.63;;;8.29;100.00
66668;BME280;57205;51.438;-2.006;2023-05-20T03:19:13;102078.06;;;8.26;100.00
66668;BME280;57205;51.438;-2.006;2023-05-20T03:21:39;102073.31;;;8.22;100.00
66668;BME280;57205;51.438;-2.006;2023-05-20T03:24:04;102075.59;;;8.18;100.00
66668;BME280;57205;51.438;-2.006;2023-05-20T03:26:30;102067.81;;;8.17;100.00
66668;BME280;57205;51.438;-2.006;2023-05-20T03:28:57;102064.56;;;8.15;100.00
66668;BME280;57205;51.438;-2.006;2023-05-20T03:31:22;102070.72;;;8.15;100.00
66668;BME280;57205;51.438;-2.006;2023-05-20T03:33:48;102073.59;;;8.14;100.00
66668;BME280;57205;51.438;-2.006;2023-05-20T03:36:13;102071.31;;;8.11;100.00
66668;BME280;57205;51.438;-2.006;2023-05-20T03:38:39;102076.03;;;8.15;100.00
66668;BME280;57205;51.438;-2.006;2023-05-20T03:41:04;102073.53;;;8.20;100.00
66668;BME280;57205;51.438;-2.006;2023-05-20T03:43:30;102067.63;;;8.25;100.00
66668;BME280;57205;51.438;-2.006;2023-05-20T03:45:56;102072.50;;;8.28;100.00
66668;BME280;57205;51.438;-2.006;2023-05-20T03:48:21;102070.00;;;8.33;100.00
66668;BME280;57205;51.438;-2.006;2023-05-20T03:50:46;102080.66;;;8.39;100.00
66668;BME280;57205;51.438;-2.006;2023-05-20T03:53:12;102071.84;;;8.39;100.00
66668;BME280;57205;51.438;-2.006;2023-05-20T03:55:37;102070.59;;;8.41;100.00
66668;BME280;57205;51.438;-2.006;2023-05-20T03:58:03;102082.88;;;8.42;100.00
66668;BME280;57205;51.438;-2.006;2023-05-20T04:00:29;102078.00;;;8.39;100.00
66668;BME280;57205;51.438;-2.006;2023-05-20T04:02:57;102084.94;;;8.40;100.00
66668;BME280;57205;51.438;-2.006;2023-05-20T04:05:22;102078.00;;;8.39;100.00
66668;BME280;57205;51.438;-2.006;2023-05-20T04:07:48;102079.59;;;8.47;100.00
66668;BME280;57205;51.438;-2.006;2023-05-20T04:10:14;102072.66;;;8.39;100.00
66668;BME280;57205;51.438;-2.006;2023-05-20T04:12:39;102070.41;;;8.36;100.00
66668;BME280;57205;51.438;-2.006;2023-05-20T04:15:06;102071.41;;;8.42;100.00
66668;BME280;57205;51.438;-2.006;2023-05-20T04:17:31;102071.81;;;8.45;100.00
66668;BME280;57205;51.438;-2.006;2023-05-20T04:19:57;102067.88;;;8.48;100.00
66668;BME280;57205;51.438;-2.006;2023-05-20T04:22:24;102067.06;;;8.47;100.00
66668;BME280;57205;51.438;-2.006;2023-05-20T04:24:50;102072.13;;;8.55;100.00
66668;BME280;57205;51.438;-2.006;2023-05-20T04:27:16;102075.41;;;8.57;100.00
66668;BME280;57205;51.438;-2.006;2023-05-20T04:29:41;102065.13;;;8.61;100.00
66668;BME280;57205;51.438;-2.006;2023-05-20T04:32:12;102063.88;;;8.63;100.00
66668;BME280;57205;51.438;-2.006;2023-05-20T04:34:37;102068.19;;;8.64;100.00
66668;BME280;57205;51.438;-2.006;2023-05-20T04:37:03;102071.03;;;8.69;100.00
66668;BME280;57205;51.438;-2.006;2023-05-20T04:39:28;102060.78;;;8.66;100.00
66668;BME280;57205;51.438;-2.006;2023-05-20T04:41:54;102057.09;;;8.67;100.00
66668;BME280;57205;51.438;-2.006;2023-05-20T04:44:19;102060.13;;;8.71;100.00
66668;BME280;57205;51.438;-2.006;2023-05-20T04:46:45;102052.06;;;8.77;100.00
66668;BME280;57205;51.438;-2.006;2023-05-20T04:49:10;102055.94;;;8.81;100.00
66668;BME280;57205;51.438;-2.006;2023-05-20T04:51:36;102048.88;;;8.94;100.00
66668;BME280;57205;51.438;-2.006;2023-05-20T04:54:02;102046.75;;;9.02;100.00
66668;BME280;57205;51.438;-2.006;2023-05-20T04:56:27;102036.00;;;9.09;100.00
66668;BME280;57205;51.438;-2.006;2023-05-20T04:58:53;102032.59;;;9.20;100.00
66668;BME280;57205;51.438;-2.006;2023-05-20T05:01:20;102036.78;;;9.16;100.00
66668;BME280;57205;51.438;-2.006;2023-05-20T05:03:45;102033.66;;;9.19;100.00
66668;BME280;57205;51.438;-2.006;2023-05-20T05:06:11;102038.38;;;9.17;100.00
66668;BME280;57205;51.438;-2.006;2023-05-20T05:08:36;102037.53;;;9.23;100.00
66668;BME280;57205;51.438;-2.006;2023-05-20T05:11:04;102039.47;;;9.34;100.00
66668;BME280;57205;51.438;-2.006;2023-05-20T05:13:30;102039.59;;;9.57;100.00
66668;BME280;57205;51.438;-2.006;2023-05-20T05:15:59;102044.66;;;9.65;100.00
66668;BME280;57205;51.438;-2.006;2023-05-20T05:18:25;102042.59;;;9.67;100.00
66668;BME280;57205;51.438;-2.006;2023-05-20T05:20:58;102042.44;;;9.62;100.00
66668;BME280;57205;51.438;-2.006;2023-05-20T05:23:24;102039.22;;;9.53;100.00
66668;BME280;57205;51.438;-2.006;2023-05-20T05:25:52;102041.13;;;9.53;100.00
66668;BME280;57205;51.438;-2.006;2023-05-20T05:28:18;102040.50;;;9.51;100.00
66668;BME280;57205;51.438;-2.006;2023-05-20T05:30:45;102041.25;;;9.58;100.00
66668;BME280;57205;51.438;-2.006;2023-05-20T05:33:10;102039.91;;;9.67;100.00
66668;BME280;57205;51.438;-2.006;2023-05-20T05:35:35;102035.03;;;9.64;100.00
66668;BME280;57205;51.438;-2.006;2023-05-20T05:38:01;102044.94;;;9.57;100.00
66668;BME280;57205;51.438;-2.006;2023-05-20T05:40:27;102040.00;;;9.60;100.00
66668;BME280;57205;51.438;-2.006;2023-05-20T05:42:52;102038.66;;;9.69;100.00
66668;BME280;57205;51.438;-2.006;2023-05-20T05:45:17;102033.38;;;9.63;100.00
66668;BME280;57205;51.438;-2.006;2023-05-20T05:47:43;102046.38;;;9.59;100.00
66668;BME280;57205;51.438;-2.006;2023-05-20T05:50:08;102044.75;;;9.58;100.00
66668;BME280;57205;51.438;-2.006;2023-05-20T05:52:35;102045.13;;;9.62;100.00
66668;BME280;57205;51.438;-2.006;2023-05-20T05:55:01;102051.84;;;9.64;100.00
66668;BME280;57205;51.438;-2.006;2023-05-20T05:57:26;102056.53;;;9.69;100.00
66668;BME280;57205;51.438;-2.006;2023-05-20T05:59:51;102047.28;;;9.71;100.00
66668;BME280;57205;51.438;-2.006;2023-05-20T06:02:17;102049.69;;;9.91;100.00
66668;BME280;57205;51.438;-2.006;2023-05-20T06:04:42;102035.81;;;10.01;100.00
66668;BME280;57205;51.438;-2.006;2023-05-20T06:07:08;102040.44;;;10.05;100.00
66668;BME280;57205;51.438;-2.006;2023-05-20T06:09:33;102039.66;;;10.23;100.00
66668;BME280;57205;51.438;-2.006;2023-05-20T06:11:59;102037.63;;;10.48;100.00
66668;BME280;57205;51.438;-2.006;2023-05-20T06:14:24;102026.91;;;11.01;100.00
66668;BME280;57205;51.438;-2.006;2023-05-20T06:16:50;102018.00;;;11.69;100.00
66668;BME280;57205;51.438;-2.006;2023-05-20T06:19:15;102011.13;;;12.30;100.00
66668;BME280;57205;51.438;-2.006;2023-05-20T06:21:41;102006.78;;;13.07;100.00
66668;BME280;57205;51.438;-2.006;2023-05-20T06:24:06;102006.19;;;13.86;100.00
66668;BME280;57205;51.438;-2.006;2023-05-20T06:26:31;102005.31;;;14.02;100.00
66668;BME280;57205;51.438;-2.006;2023-05-20T06:28:57;101991.69;;;13.87;100.00
66668;BME280;57205;51.438;-2.006;2023-05-20T06:31:22;102002.06;;;14.00;100.00
66668;BME280;57205;51.438;-2.006;2023-05-20T06:33:48;102004.66;;;13.68;100.00
66668;BME280;57205;51.438;-2.006;2023-05-20T06:36:13;102008.03;;;13.59;100.00
66668;BME280;57205;51.438;-2.006;2023-05-20T06:38:38;102004.16;;;13.71;100.00
66668;BME280;57205;51.438;-2.006;2023-05-20T06:41:04;102003.44;;;14.03;100.00
66668;BME280;57205;51.438;-2.006;2023-05-20T06:43:29;102008.25;;;14.81;100.00
66668;BME280;57205;51.438;-2.006;2023-05-20T06:45:55;102000.84;;;15.44;97.00
66668;BME280;57205;51.438;-2.006;2023-05-20T06:48:20;101994.56;;;15.96;89.26
66668;BME280;57205;51.438;-2.006;2023-05-20T06:50:45;101994.81;;;15.89;90.03
66668;BME280;57205;51.438;-2.006;2023-05-20T06:53:11;101995.31;;;15.76;87.63
66668;BME280;57205;51.438;-2.006;2023-05-20T06:55:37;101986.84;;;15.52;89.20
66668;BME280;57205;51.438;-2.006;2023-05-20T06:58:02;101996.13;;;15.25;90.38
66668;BME280;57205;51.438;-2.006;2023-05-20T07:00:28;101988.34;;;15.38;91.86
66668;BME280;57205;51.438;-2.006;2023-05-20T07:02:53;101985.06;;;15.83;88.48
66668;BME280;57205;51.438;-2.006;2023-05-20T07:05:18;101987.94;;;16.74;84.03
66668;BME280;57205;51.438;-2.006;2023-05-20T07:07:44;101989.25;;;16.76;82.74
66668;BME280;57205;51.438;-2.006;2023-05-20T07:10:10;101981.88;;;17.22;79.50
66668;BME280;57205;51.438;-2.006;2023-05-20T07:12:36;101981.75;;;17.62;76.18
66668;BME280;57205;51.438;-2.006;2023-05-20T07:15:02;101973.53;;;17.87;74.04
66668;BME280;57205;51.438;-2.006;2023-05-20T07:17:27;101967.50;;;18.00;72.20
66668;BME280;57205;51.438;-2.006;2023-05-20T07:19:54;101969.53;;;17.70;71.48
66668;BME280;57205;51.438;-2.006;2023-05-20T07:22:20;101971.06;;;18.29;71.32
66668;BME280;57205;51.438;-2.006;2023-05-20T07:24:45;101978.06;;;18.74;67.51
66668;BME280;57205;51.438;-2.006;2023-05-20T07:27:12;101976.03;;;19.13;63.01
66668;BME280;57205;51.438;-2.006;2023-05-20T07:29:37;101971.34;;;19.85;60.74
66668;BME280;57205;51.438;-2.006;2023-05-20T07:32:03;101967.78;;;20.26;58.98
66668;BME280;57205;51.438;-2.006;2023-05-20T07:34:29;101968.19;;;20.98;54.20
66668;BME280;57205;51.438;-2.006;2023-05-20T07:37:06;101970.66;;;21.26;53.25
66668;BME280;57205;51.438;-2.006;2023-05-20T07:39:35;101969.66;;;21.22;51.10
66668;BME280;57205;51.438;-2.006;2023-05-20T07:42:00;101969.72;;;21.72;49.98
66668;BME280;57205;51.438;-2.006;2023-05-20T07:44:25;101978.28;;;21.65;48.57
66668;BME280;57205;51.438;-2.006;2023-05-20T07:46:51;101971.56;;;21.63;47.77
66668;BME280;57205;51.438;-2.006;2023-05-20T07:49:17;101971.25;;;21.10;48.21
66668;BME280;57205;51.438;-2.006;2023-05-20T07:51:43;101973.78;;;21.47;47.81
66668;BME280;57205;51.438;-2.006;2023-05-20T07:54:09;101972.06;;;21.51;47.28
66668;BME280;57205;51.438;-2.006;2023-05-20T07:56:34;101984.06;;;21.50;46.92
66668;BME280;57205;51.438;-2.006;2023-05-20T07:59:00;101981.91;;;21.74;46.61
66668;BME280;57205;51.438;-2.006;2023-05-20T08:01:27;101972.69;;;21.34;47.16
66668;BME280;57205;51.438;-2.006;2023-05-20T08:03:52;101969.63;;;21.63;46.21
66668;BME280;57205;51.438;-2.006;2023-05-20T08:06:19;101963.34;;;21.76;46.03
66668;BME280;57205;51.438;-2.006;2023-05-20T08:08:45;101965.53;;;22.01;45.93
66668;BME280;57205;51.438;-2.006;2023-05-20T08:11:28;101967.91;;;22.16;45.75
66668;BME280;57205;51.438;-2.006;2023-05-20T08:13:54;101965.88;;;22.22;43.89
66668;BME280;57205;51.438;-2.006;2023-05-20T08:16:20;101964.09;;;21.55;45.86
66668;BME280;57205;51.438;-2.006;2023-05-20T08:18:53;101959.75;;;21.81;45.57
66668;BME280;57205;51.438;-2.006;2023-05-20T08:21:19;101956.19;;;21.67;46.27
66668;BME280;57205;51.438;-2.006;2023-05-20T08:23:44;101961.31;;;21.95;44.73
66668;BME280;57205;51.438;-2.006;2023-05-20T08:26:10;101964.91;;;22.49;44.87
66668;BME280;57205;51.438;-2.006;2023-05-20T08:28:35;101955.00;;;22.75;42.52
66668;BME280;57205;51.438;-2.006;2023-05-20T08:31:02;101959.63;;;22.96;43.31
66668;BME280;57205;51.438;-2.006;2023-05-20T08:33:27;101967.81;;;22.96;43.86
66668;BME280;57205;51.438;-2.006;2023-05-20T08:35:53;101958.47;;;22.89;43.38
66668;BME280;57205;51.438;-2.006;2023-05-20T08:38:18;101969.66;;;22.35;44.34
66668;BME280;57205;51.438;-2.006;2023-05-20T08:40:45;101957.09;;;22.33;43.94
66668;BME280;57205;51.438;-2.006;2023-05-20T08:43:10;101968.28;;;22.23;44.47
66668;BME280;57205;51.438;-2.006;2023-05-20T08:45:37;101967.97;;;22.47;44.86
66668;BME280;57205;51.438;-2.006;2023-05-20T08:48:04;101960.25;;;22.63;43.87
66668;BME280;57205;51.438;-2.006;2023-05-20T08:50:31;101964.06;;;22.40;44.04
66668;BME280;57205;51.438;-2.006;2023-05-20T08:52:56;101961.88;;;22.06;44.80
66668;BME280;57205;51.438;-2.006;2023-05-20T08:57:54;101972.94;;;22.23;45.91
66668;BME280;57205;51.438;-2.006;2023-05-20T09:00:20;101962.97;;;22.41;45.70
66668;BME280;57205;51.438;-2.006;2023-05-20T09:02:48;101972.75;;;22.19;45.28
66668;BME280;57205;51.438;-2.006;2023-05-20T09:05:13;101970.81;;;22.42;45.40
66668;BME280;57205;51.438;-2.006;2023-05-20T09:07:39;101959.47;;;22.49;44.81
66668;BME280;57205;51.438;-2.006;2023-05-20T09:10:07;101955.38;;;21.80;45.68
66668;BME280;57205;51.438;-2.006;2023-05-20T09:12:33;101963.53;;;21.93;45.24
66668;BME280;57205;51.438;-2.006;2023-05-20T09:14:59;101953.78;;;21.65;45.64
66668;BME280;57205;51.438;-2.006;2023-05-20T09:17:24;101955.53;;;21.48;46.29
66668;BME280;57205;51.438;-2.006;2023-05-20T09:19:51;101958.56;;;21.19;46.56
66668;BME280;57205;51.438;-2.006;2023-05-20T09:22:24;101953.72;;;20.70;47.96
66668;BME280;57205;51.438;-2.006;2023-05-20T09:24:50;101936.88;;;20.55;49.04
66668;BME280;57205;51.438;-2.006;2023-05-20T09:27:17;101948.31;;;20.84;49.57
66668;BME280;57205;51.438;-2.006;2023-05-20T09:29:42;101936.38;;;21.12;47.32
66668;BME280;57205;51.438;-2.006;2023-05-20T09:32:14;101939.59;;;21.00;47.82
66668;BME280;57205;51.438;-2.006;2023-05-20T09:34:40;101941.78;;;20.98;48.28
66668;BME280;57205;51.438;-2.006;2023-05-20T09:37:10;101932.03;;;21.38;48.03
66668;BME280;57205;51.438;-2.006;2023-05-20T09:42:19;101935.06;;;21.99;46.12
66668;BME280;57205;51.438;-2.006;2023-05-20T09:44:47;101934.06;;;21.95;46.25
66668;BME280;57205;51.438;-2.006;2023-05-20T09:47:13;101930.63;;;21.90;46.32
66668;BME280;57205;51.438;-2.006;2023-05-20T09:49:40;101931.81;;;21.97;44.78
66668;BME280;57205;51.438;-2.006;2023-05-20T09:52:07;101919.41;;;21.91;45.78
66668;BME280;57205;51.438;-2.006;2023-05-20T09:54:34;101918.50;;;21.96;45.12
66668;BME280;57205;51.438;-2.006;2023-05-20T09:57:02;101929.34;;;22.09;45.69
66668;BME280;57205;51.438;-2.006;2023-05-20T09:59:30;101910.16;;;21.92;46.63
66668;BME280;57205;51.438;-2.006;2023-05-20T10:01:55;101911.66;;;22.73;45.86
66668;BME280;57205;51.438;-2.006;2023-05-20T10:04:22;101917.19;;;22.90;43.75
66668;BME280;57205;51.438;-2.006;2023-05-20T10:12:36;101914.13;;;22.61;43.26
66668;BME280;57205;51.438;-2.006;2023-05-20T10:15:25;101907.53;;;22.93;42.73
66668;BME280;57205;51.438;-2.006;2023-05-20T10:18:20;101909.81;;;22.38;43.34
66668;BME280;57205;51.438;-2.006;2023-05-20T10:20:49;101898.66;;;21.82;44.38
66668;BME280;57205;51.438;-2.006;2023-05-20T10:23:29;101897.91;;;21.54;45.69
66668;BME280;57205;51.438;-2.006;2023-05-20T10:25:57;101887.94;;;21.85;45.48
66668;BME280;57205;51.438;-2.006;2023-05-20T10:28:32;101892.53;;;21.98;45.29
66668;BME280;57205;51.438;-2.006;2023-05-20T10:30:59;101891.66;;;21.89;44.49
66668;BME280;57205;51.438;-2.006;2023-05-20T10:33:25;101899.78;;;22.03;44.22
66668;BME280;57205;51.438;-2.006;2023-05-20T10:35:57;101882.50;;;22.07;44.53
66668;BME280;57205;51.438;-2.006;2023-05-20T10:38:23;101890.75;;;21.94;44.74
66668;BME280;57205;51.438;-2.006;2023-05-20T10:40:49;101881.56;;;22.12;44.90
66668;BME280;57205;51.438;-2.006;2023-05-20T10:43:16;101873.03;;;21.69;45.74
66668;BME280;57205;51.438;-2.006;2023-05-20T10:45:54;101880.34;;;21.96;45.27
66668;BME280;57205;51.438;-2.006;2023-05-20T10:48:26;101882.88;;;21.92;45.46
66668;BME280;57205;51.438;-2.006;2023-05-20T10:50:56;101877.88;;;21.72;45.96
66668;BME280;57205;51.438;-2.006;2023-05-20T10:53:23;101881.06;;;21.52;45.99
66668;BME280;57205;51.438;-2.006;2023-05-20T10:55:50;101884.84;;;21.29;46.37
66668;BME280;57205;51.438;-2.006;2023-05-20T10:58:16;101879.72;;;21.14;47.62
66668;BME280;57205;51.438;-2.006;2023-05-20T11:00:42;101879.59;;;21.19;47.84
66668;BME280;57205;51.438;-2.006;2023-05-20T11:03:08;101866.00;;;20.92;47.95
66668;BME280;57205;51.438;-2.006;2023-05-20T11:05:34;101877.63;;;20.52;49.35
66668;BME280;57205;51.438;-2.006;2023-05-20T11:08:04;101866.03;;;20.32;49.26
66668;BME280;57205;51.438;-2.006;2023-05-20T11:10:30;101856.91;;;20.23;50.59
66668;BME280;57205;51.438;-2.006;2023-05-20T11:12:57;101857.16;;;20.08;50.80
66668;BME280;57205;51.438;-2.006;2023-05-20T11:15:23;101858.47;;;20.11;51.52
66668;BME280;57205;51.438;-2.006;2023-05-20T11:17:56;101860.53;;;20.19;51.03
66668;BME280;57205;51.438;-2.006;2023-05-20T11:20:25;101859.06;;;20.26;52.09
66668;BME280;57205;51.438;-2.006;2023-05-20T11:22:51;101854.94;;;20.10;51.93
66668;BME280;57205;51.438;-2.006;2023-05-20T11:25:17;101855.13;;;20.00;51.09
66668;BME280;57205;51.438;-2.006;2023-05-20T11:27:43;101844.72;;;19.89;51.85
66668;BME280;57205;51.438;-2.006;2023-05-20T11:30:12;101852.44;;;19.82;51.47
66668;BME280;57205;51.438;-2.006;2023-05-20T11:32:55;101850.53;;;19.82;52.14
66668;BME280;57205;51.438;-2.006;2023-05-20T11:35:21;101844.84;;;19.97;51.91
66668;BME280;57205;51.438;-2.006;2023-05-20T11:38:14;101835.75;;;19.88;51.60
66668;BME280;57205;51.438;-2.006;2023-05-20T11:40:50;101838.53;;;19.83;51.48
66668;BME280;57205;51.438;-2.006;2023-05-20T11:43:16;101828.47;;;20.02;51.80
66668;BME280;57205;51.438;-2.006;2023-05-20T11:45:43;101830.53;;;19.92;50.85
66668;BME280;57205;51.438;-2.006;2023-05-20T11:48:10;101829.03;;;19.99;50.49
66668;BME280;57205;51.438;-2.006;2023-05-20T11:50:38;101833.16;;;19.97;50.58
66668;BME280;57205;51.438;-2.006;2023-05-20T11:53:09;101829.72;;;19.91;51.74
66668;BME280;57205;51.438;-2.006;2023-05-20T11:55:54;101827.25;;;19.76;52.02
66668;BME280;57205;51.438;-2.006;2023-05-20T11:58:22;101821.94;;;19.53;51.35
66668;BME280;57205;51.438;-2.006;2023-05-20T12:00:51;101819.34;;;19.61;50.81
66668;BME280;57205;51.438;-2.006;2023-05-20T12:03:17;101818.47;;;19.66;49.55
66668;BME280;57205;51.438;-2.006;2023-05-20T12:05:43;101819.94;;;19.58;50.65
66668;BME280;57205;51.438;-2.006;2023-05-20T12:08:08;101804.00;;;19.70;50.96
66668;BME280;57205;51.438;-2.006;2023-05-20T12:10:34;101804.00;;;19.70;49.44
66668;BME280;57205;51.438;-2.006;2023-05-20T12:13:20;101805.66;;;19.85;49.19
66668;BME280;57205;51.438;-2.006;2023-05-20T12:15:47;101799.69;;;19.83;50.51
66668;BME280;57205;51.438;-2.006;2023-05-20T12:18:13;101801.91;;;19.81;50.45
66668;BME280;57205;51.438;-2.006;2023-05-20T12:20:38;101794.66;;;19.76;50.30
66668;BME280;57205;51.438;-2.006;2023-05-20T12:23:04;101792.38;;;19.83;49.87
66668;BME280;57205;51.438;-2.006;2023-05-20T12:25:29;101790.38;;;19.89;48.74
66668;BME280;57205;51.438;-2.006;2023-05-20T12:27:55;101792.28;;;19.88;48.57
66668;BME280;57205;51.438;-2.006;2023-05-20T12:30:21;101782.84;;;19.99;49.56
66668;BME280;57205;51.438;-2.006;2023-05-20T12:32:48;101793.97;;;20.16;49.33
66668;BME280;57205;51.438;-2.006;2023-05-20T12:35:15;101783.28;;;20.06;49.33
66668;BME280;57205;51.438;-2.006;2023-05-20T12:37:42;101782.69;;;20.09;49.50
66668;BME280;57205;51.438;-2.006;2023-05-20T12:40:09;101784.22;;;20.15;50.23
66668;BME280;57205;51.438;-2.006;2023-05-20T12:42:36;101775.84;;;20.12;49.56
66668;BME280;57205;51.438;-2.006;2023-05-20T12:45:02;101773.50;;;20.05;49.91
66668;BME280;57205;51.438;-2.006;2023-05-20T12:47:29;101770.09;;;20.13;49.10